Greenfield, Tennessee
Current Conditions -  °F | °C
As of 8:35 AM on Sunday 21 Dec 2014 (Local Time) from KUCY Reporting Station
Clear Clear  
Wind Chill: 23°   Ceiling: Unl
Heat Index: 28°   Visibility: 7mi
Dew Point: 28°   Wind: 5mph
Humidity: 100%   Direction: 50°NE
Pressure: 30.21"   Gusts: NA
Location:  36.15°N, 88.8°W
Report Text: KUCY 211435Z AUTO 05004KT 7SM CLR M02/M02 A3021 RMK
Loading
Personal Weather Stations






























Interactive Weather Map New forecast layout! Learn more

10-Day Weather Forecast

Advertisements
Track Severe Weather on mobile